Time;durP1;ratioP1;P1;durP2;ratioP2;P2;SDS_P1;SDS_P2;PMS_P1;PMS_P2;Temp;Humidity;BMP_temperature;BMP_pressure;BME280_temperature;BME280_humidity;BME280_pressure;Samples;Min_cycle;Max_cycle;Signal;HPM_P1;HPM_P2
2022/11/21 00:01:12;;;;;;;0.38;0.28;;;;;;;;;;5031704;28;20081;-80
2022/11/21 00:03:38;;;;;;;0.38;0.30;;;;;;;;;;5040155;28;20030;-80
2022/11/21 00:06:04;;;;;;;0.20;0.20;;;;;;;;;;5040487;28;20033;-80
2022/11/21 00:08:30;;;;;;;0.68;0.30;;;;;;;;;;5032103;28;20029;-82
2022/11/21 00:10:58;;;;;;;0.20;0.20;;;;;;;;;;5017271;28;20038;-82
2022/11/21 00:13:24;;;;;;;4.80;0.32;;;;;;;;;;5024127;28;20026;-82
2022/11/21 00:15:50;;;;;;;0.30;0.20;;;;;;;;;;5031122;28;20028;-82
2022/11/21 00:18:16;;;;;;;0.38;0.20;;;;;;;;;;5028018;28;20056;-82
2022/11/21 00:20:43;;;;;;;0.50;0.25;;;;;;;;;;5028719;28;20029;-82
2022/11/21 00:23:09;;;;;;;0.60;0.30;;;;;;;;;;5029367;28;20026;-82
2022/11/21 00:25:36;;;;;;;0.25;0.25;;;;;;;;;;5028455;28;20121;-82
2022/11/21 00:28:02;;;;;;;0.20;0.20;;;;;;;;;;5014266;28;20030;-82
2022/11/21 00:30:28;;;;;;;0.20;0.17;;;;;;;;;;5030616;28;20016;-80
2022/11/21 00:32:54;;;;;;;3.42;0.20;;;;;;;;;;5028995;28;20081;-80
2022/11/21 00:35:20;;;;;;;0.10;0.10;;;;;;;;;;5028359;28;20037;-80
2022/11/21 00:37:47;;;;;;;0.20;0.20;;;;;;;;;;5027986;28;20029;-80
2022/11/21 00:40:13;;;;;;;0.25;0.20;;;;;;;;;;5028055;28;20022;-80
2022/11/21 00:42:39;;;;;;;0.45;0.10;;;;;;;;;;5026860;28;20045;-80
2022/11/21 00:45:05;;;;;;;0.55;0.55;;;;;;;;;;5020460;28;20026;-81
2022/11/21 00:47:31;;;;;;;0.50;0.20;;;;;;;;;;5011617;28;20061;-81
2022/11/21 00:49:57;;;;;;;0.47;0.40;;;;;;;;;;5010812;28;20041;-81
2022/11/21 00:52:23;;;;;;;0.20;0.20;;;;;;;;;;5026654;28;20085;-80
2022/11/21 00:54:49;;;;;;;0.20;0.10;;;;;;;;;;5028673;28;20081;-81
2022/11/21 00:57:15;;;;;;;2.45;0.38;;;;;;;;;;5026875;28;20045;-81
2022/11/21 00:59:41;;;;;;;1.13;0.30;;;;;;;;;;5027844;28;20049;-80
2022/11/21 01:02:07;;;;;;;0.90;0.30;;;;;;;;;;5026947;28;20082;-82
2022/11/21 01:04:34;;;;;;;0.93;0.30;;;;;;;;;;5019407;28;20026;-80
2022/11/21 01:07:00;;;;;;;0.32;0.20;;;;;;;;;;5008543;28;20468;-80
2022/11/21 01:09:27;;;;;;;0.70;0.30;;;;;;;;;;5024198;28;20037;-80
2022/11/21 01:11:53;;;;;;;0.82;0.50;;;;;;;;;;5026561;28;20471;-81
2022/11/21 01:14:19;;;;;;;0.30;0.30;;;;;;;;;;5027311;28;20525;-80
2022/11/21 01:16:45;;;;;;;0.35;0.20;;;;;;;;;;5025459;28;20143;-81
2022/11/21 01:19:11;;;;;;;0.32;0.30;;;;;;;;;;5027829;28;20034;-81
2022/11/21 01:21:37;;;;;;;0.30;0.30;;;;;;;;;;5026979;28;20041;-80
2022/11/21 01:24:03;;;;;;;0.13;0.13;;;;;;;;;;5026471;28;20026;-81
2022/11/21 01:26:31;;;;;;;0.77;0.30;;;;;;;;;;5026402;28;20064;-81
2022/11/21 01:28:58;;;;;;;0.68;0.30;;;;;;;;;;5026139;28;20029;-81
2022/11/21 01:31:25;;;;;;;0.60;0.22;;;;;;;;;;5020414;28;20022;-81
2022/11/21 01:33:51;;;;;;;0.28;0.22;;;;;;;;;;5024310;28;20065;-82
2022/11/21 01:36:22;;;;;;;0.32;0.25;;;;;;;;;;5025707;28;20110;-81
2022/11/21 01:38:49;;;;;;;0.75;0.40;;;;;;;;;;5026748;28;20030;-81
2022/11/21 01:41:17;;;;;;;0.70;0.50;;;;;;;;;;5027606;28;20022;-81
2022/11/21 01:43:44;;;;;;;1.25;0.28;;;;;;;;;;5033195;28;20014;-80
2022/11/21 01:46:11;;;;;;;1.73;1.02;;;;;;;;;;5017791;28;20047;-80
2022/11/21 01:48:40;;;;;;;0.75;0.28;;;;;;;;;;5035995;28;20056;-80
2022/11/21 01:51:09;;;;;;;1.55;0.45;;;;;;;;;;5035338;28;20033;-80
2022/11/21 01:53:35;;;;;;;0.50;0.50;;;;;;;;;;5035748;28;20046;-80
2022/11/21 01:56:02;;;;;;;0.57;0.30;;;;;;;;;;5034038;28;20038;-80
2022/11/21 01:58:29;;;;;;;0.32;0.30;;;;;;;;;;5032381;28;20025;-79
2022/11/21 02:00:55;;;;;;;0.60;0.32;;;;;;;;;;5034217;28;20026;-81
2022/11/21 02:03:24;;;;;;;1.08;0.50;;;;;;;;;;5033668;28;20048;-80
2022/11/21 02:05:51;;;;;;;1.08;0.40;;;;;;;;;;5034822;28;20112;-80
2022/11/21 02:08:19;;;;;;;0.85;0.35;;;;;;;;;;5035369;28;20026;-80
2022/11/21 02:11:00;;;;;;;1.27;0.50;;;;;;;;;;5033278;28;20036;-80
2022/11/21 02:13:26;;;;;;;0.73;0.68;;;;;;;;;;5034825;28;20022;-80
2022/11/21 02:15:53;;;;;;;0.60;0.50;;;;;;;;;;5018764;28;20026;-79
2022/11/21 02:18:19;;;;;;;1.33;0.50;;;;;;;;;;5031913;28;20028;-81
2022/11/21 02:20:50;;;;;;;0.40;0.20;;;;;;;;;;5033208;28;20061;-81
2022/11/21 02:23:37;;;;;;;0.93;0.63;;;;;;;;;;5019444;28;20057;-80
2022/11/21 02:26:03;;;;;;;1.17;0.55;;;;;;;;;;5005306;28;20074;-81
2022/11/21 02:28:30;;;;;;;0.50;0.50;;;;;;;;;;5015860;28;20025;-80
2022/11/21 02:30:56;;;;;;;1.42;0.40;;;;;;;;;;5027252;28;20049;-79
2022/11/21 02:33:22;;;;;;;1.13;0.63;;;;;;;;;;5026794;28;20359;-83
2022/11/21 02:36:01;;;;;;;1.27;0.50;;;;;;;;;;5025097;28;20037;-81
2022/11/21 02:38:36;;;;;;;1.40;0.30;;;;;;;;;;5027805;28;20030;-82
2022/11/21 02:41:02;;;;;;;0.40;0.40;;;;;;;;;;5029155;28;20030;-81
2022/11/21 02:43:31;;;;;;;1.85;0.40;;;;;;;;;;5027339;28;20456;-81
2022/11/21 02:45:57;;;;;;;1.15;0.50;;;;;;;;;;5026793;28;20026;-81
2022/11/21 02:48:24;;;;;;;2.17;0.55;;;;;;;;;;5022828;28;20026;-81
2022/11/21 02:50:49;;;;;;;1.73;0.55;;;;;;;;;;5026701;28;20034;-80
2022/11/21 02:53:17;;;;;;;0.63;0.40;;;;;;;;;;5027614;28;20037;-80
2022/11/21 02:55:43;;;;;;;0.40;0.38;;;;;;;;;;5026966;28;20093;-82
2022/11/21 02:58:10;;;;;;;0.98;0.50;;;;;;;;;;5011256;28;20570;-81
2022/11/21 03:00:36;;;;;;;1.50;0.80;;;;;;;;;;5025983;28;20034;-81
2022/11/21 03:03:03;;;;;;;1.90;0.52;;;;;;;;;;5025293;28;20026;-82
2022/11/21 03:05:29;;;;;;;2.88;0.57;;;;;;;;;;5024514;28;20037;-81
2022/11/21 03:07:55;;;;;;;1.05;0.65;;;;;;;;;;5015039;28;20038;-80
2022/11/21 03:10:21;;;;;;;2.10;0.60;;;;;;;;;;5026855;28;20057;-81
2022/11/21 03:12:47;;;;;;;0.80;0.57;;;;;;;;;;5023721;28;20026;-81
2022/11/21 03:15:14;;;;;;;0.93;0.45;;;;;;;;;;5025778;28;20068;-81
2022/11/21 03:17:40;;;;;;;0.47;0.28;;;;;;;;;;5024940;28;20038;-83
2022/11/21 03:20:07;;;;;;;2.38;0.50;;;;;;;;;;5025392;28;20053;-81
2022/11/21 03:22:33;;;;;;;0.57;0.52;;;;;;;;;;5018574;28;20146;-81
2022/11/21 03:24:59;;;;;;;0.55;0.50;;;;;;;;;;5014615;28;20221;-80
2022/11/21 03:27:25;;;;;;;1.02;0.40;;;;;;;;;;5023800;28;20073;-81
2022/11/21 03:29:51;;;;;;;1.25;0.30;;;;;;;;;;5021764;28;20087;-81
2022/11/21 03:32:18;;;;;;;0.90;0.28;;;;;;;;;;5025337;28;20029;-80
2022/11/21 03:34:44;;;;;;;1.13;0.65;;;;;;;;;;5026995;28;20026;-81
2022/11/21 03:37:10;;;;;;;2.60;0.60;;;;;;;;;;5027631;28;20030;-81
2022/11/21 03:39:36;;;;;;;0.60;0.20;;;;;;;;;;5026855;28;20022;-81
2022/11/21 03:42:02;;;;;;;0.77;0.43;;;;;;;;;;5013724;28;20030;-81
2022/11/21 03:44:29;;;;;;;0.77;0.35;;;;;;;;;;5029973;28;20053;-83
2022/11/21 03:46:55;;;;;;;1.88;0.40;;;;;;;;;;5027532;28;20439;-82
2022/11/21 03:49:21;;;;;;;0.55;0.22;;;;;;;;;;5027834;28;20471;-82
2022/11/21 03:51:47;;;;;;;1.50;0.30;;;;;;;;;;5029704;28;20077;-83
2022/11/21 03:54:13;;;;;;;2.95;0.60;;;;;;;;;;5028837;28;20087;-81
2022/11/21 03:56:39;;;;;;;1.95;0.57;;;;;;;;;;5028417;28;20026;-81
2022/11/21 03:59:05;;;;;;;3.20;0.63;;;;;;;;;;5029004;28;20065;-81
2022/11/21 04:01:31;;;;;;;0.95;0.60;;;;;;;;;;5029685;28;20073;-80
2022/11/21 04:03:57;;;;;;;1.67;0.65;;;;;;;;;;5029998;28;20018;-81
2022/11/21 04:06:24;;;;;;;2.45;0.77;;;;;;;;;;5028873;28;20468;-80
2022/11/21 04:08:50;;;;;;;1.73;1.05;;;;;;;;;;5028700;28;20561;-81
2022/11/21 04:11:16;;;;;;;3.92;1.45;;;;;;;;;;5009074;28;20410;-80
2022/11/21 04:13:42;;;;;;;2.10;0.80;;;;;;;;;;5027861;28;20038;-81
2022/11/21 04:16:08;;;;;;;3.38;0.75;;;;;;;;;;5026384;28;20037;-81
2022/11/21 04:18:35;;;;;;;1.58;0.50;;;;;;;;;;5030633;28;20037;-81
2022/11/21 04:21:03;;;;;;;1.77;1.00;;;;;;;;;;5031505;28;20051;-80
2022/11/21 04:23:29;;;;;;;2.35;0.70;;;;;;;;;;5029409;28;20100;-82
2022/11/21 04:25:55;;;;;;;2.28;0.80;;;;;;;;;;5026760;28;20088;-80
2022/11/21 04:28:21;;;;;;;1.45;0.43;;;;;;;;;;5011795;28;20085;-81
2022/11/21 04:30:48;;;;;;;2.67;0.75;;;;;;;;;;5030113;28;20030;-82
2022/11/21 04:33:14;;;;;;;1.40;0.80;;;;;;;;;;5029307;28;20041;-82
2022/11/21 04:35:41;;;;;;;2.47;0.50;;;;;;;;;;5028168;28;20033;-82
2022/11/21 04:38:07;;;;;;;1.70;0.50;;;;;;;;;;5026995;28;20030;-82
2022/11/21 04:40:34;;;;;;;2.35;0.50;;;;;;;;;;5029141;28;20033;-81
2022/11/21 04:43:00;;;;;;;1.23;0.60;;;;;;;;;;5029714;28;20033;-81
2022/11/21 04:45:26;;;;;;;1.33;0.40;;;;;;;;;;5029557;28;20060;-82
2022/11/21 04:47:52;;;;;;;1.98;0.50;;;;;;;;;;5031105;28;20034;-82
2022/11/21 04:50:18;;;;;;;5.32;0.60;;;;;;;;;;5024307;28;20439;-81
2022/11/21 04:52:51;;;;;;;7.40;0.65;;;;;;;;;;5028465;28;20372;-82
2022/11/21 04:55:17;;;;;;;1.27;0.52;;;;;;;;;;5028173;28;20395;-81
2022/11/21 04:57:43;;;;;;;2.70;0.47;;;;;;;;;;5029989;28;20022;-81
2022/11/21 05:00:10;;;;;;;5.28;0.65;;;;;;;;;;5034099;28;20029;-81
2022/11/21 05:02:36;;;;;;;1.90;0.38;;;;;;;;;;5036351;28;20033;-81
2022/11/21 05:05:02;;;;;;;3.13;0.60;;;;;;;;;;5035856;28;20014;-82
2022/11/21 05:07:28;;;;;;;0.57;0.40;;;;;;;;;;5030394;28;20029;-80
2022/11/21 05:09:54;;;;;;;3.40;0.68;;;;;;;;;;5037073;28;20081;-80
2022/11/21 05:15:05;;;;;;;1.10;0.63;;;;;;;;;;5028868;28;20112;-81
2022/11/21 05:17:31;;;;;;;1.85;0.55;;;;;;;;;;5027478;28;20089;-82
2022/11/21 05:19:57;;;;;;;1.95;0.80;;;;;;;;;;5028639;28;20525;-81
2022/11/21 05:22:23;;;;;;;3.03;1.00;;;;;;;;;;5028933;28;20034;-81
2022/11/21 05:24:49;;;;;;;5.95;0.60;;;;;;;;;;5027866;28;20061;-81
2022/11/21 05:27:15;;;;;;;3.58;1.42;;;;;;;;;;5027046;28;20111;-81
2022/11/21 05:29:41;;;;;;;2.65;0.60;;;;;;;;;;5028694;28;20045;-81
2022/11/21 05:32:07;;;;;;;3.90;0.82;;;;;;;;;;5029111;28;20363;-81
2022/11/21 05:34:33;;;;;;;2.55;0.75;;;;;;;;;;5024768;28;20080;-81
2022/11/21 05:36:59;;;;;;;3.05;1.67;;;;;;;;;;5023888;28;20419;-81
2022/11/21 05:39:25;;;;;;;1.25;0.57;;;;;;;;;;5021489;28;20566;-81
2022/11/21 05:41:51;;;;;;;2.33;0.50;;;;;;;;;;5016837;28;20097;-81
2022/11/21 05:44:17;;;;;;;3.10;0.50;;;;;;;;;;5014320;28;20033;-81
2022/11/21 05:46:44;;;;;;;0.95;0.45;;;;;;;;;;5023518;28;20522;-81
2022/11/21 05:49:10;;;;;;;1.83;0.40;;;;;;;;;;5020791;28;20034;-81
2022/11/21 05:51:36;;;;;;;3.83;1.13;;;;;;;;;;5020500;28;20086;-81
2022/11/21 05:54:02;;;;;;;5.07;0.60;;;;;;;;;;5020914;28;20024;-81
2022/11/21 05:56:28;;;;;;;1.55;0.40;;;;;;;;;;5020322;28;20025;-80
2022/11/21 05:58:54;;;;;;;1.23;0.60;;;;;;;;;;5017344;28;20145;-83
2022/11/21 06:04:06;;;;;;;2.90;0.63;;;;;;;;;;5022404;28;20079;-81
2022/11/21 06:06:32;;;;;;;2.08;0.40;;;;;;;;;;5020679;28;20076;-81
2022/11/21 06:08:58;;;;;;;0.77;0.30;;;;;;;;;;5021782;28;20026;-81
2022/11/21 06:11:24;;;;;;;1.45;0.30;;;;;;;;;;5020557;28;20037;-81
2022/11/21 06:13:51;;;;;;;3.08;0.55;;;;;;;;;;5024242;28;20041;-81
2022/11/21 06:16:18;;;;;;;2.42;0.63;;;;;;;;;;5021584;28;20045;-81
2022/11/21 06:18:45;;;;;;;2.53;0.50;;;;;;;;;;5024311;28;20041;-81
2022/11/21 06:21:16;;;;;;;2.67;0.70;;;;;;;;;;5021790;28;20034;-81
2022/11/21 06:23:42;;;;;;;2.97;0.70;;;;;;;;;;5026299;28;20026;-81
2022/11/21 06:26:11;;;;;;;0.85;0.40;;;;;;;;;;5017892;28;20022;-81
2022/11/21 06:28:38;;;;;;;0.93;0.43;;;;;;;;;;5003059;28;20019;-82
2022/11/21 06:31:05;;;;;;;1.10;0.40;;;;;;;;;;5020271;28;20033;-82
2022/11/21 06:33:31;;;;;;;2.15;0.50;;;;;;;;;;5015336;28;20113;-80
2022/11/21 06:35:57;;;;;;;1.75;0.40;;;;;;;;;;5004713;28;20018;-80
2022/11/21 06:38:23;;;;;;;0.95;0.52;;;;;;;;;;5005250;28;20019;-80
2022/11/21 06:40:50;;;;;;;0.75;0.40;;;;;;;;;;5010025;28;20545;-80
2022/11/21 06:43:16;;;;;;;1.65;0.52;;;;;;;;;;5020527;28;20627;-83
2022/11/21 06:45:42;;;;;;;2.60;0.75;;;;;;;;;;5026717;28;20049;-82
2022/11/21 06:48:08;;;;;;;5.03;0.70;;;;;;;;;;5025201;28;20057;-80
2022/11/21 06:50:35;;;;;;;2.97;0.90;;;;;;;;;;5016926;28;20448;-79
2022/11/21 06:53:01;;;;;;;1.42;0.70;;;;;;;;;;5001856;28;20022;-81
2022/11/21 06:55:28;;;;;;;1.30;0.50;;;;;;;;;;4999411;28;20022;-80
2022/11/21 06:57:56;;;;;;;2.67;0.55;;;;;;;;;;5002020;28;20045;-80
2022/11/21 07:00:23;;;;;;;0.68;0.47;;;;;;;;;;5011455;28;20129;-81
2022/11/21 07:02:49;;;;;;;1.13;0.40;;;;;;;;;;5014387;28;20113;-81
2022/11/21 07:05:15;;;;;;;1.30;0.60;;;;;;;;;;5019392;28;20053;-81
2022/11/21 07:07:41;;;;;;;1.05;0.47;;;;;;;;;;5021508;28;20034;-82
2022/11/21 07:10:09;;;;;;;1.30;0.38;;;;;;;;;;5007898;28;20038;-83
2022/11/21 07:15:20;;;;;;;1.35;0.50;;;;;;;;;;5019986;28;20152;-80
2022/11/21 07:17:46;;;;;;;0.55;0.30;;;;;;;;;;5018960;28;20091;-81
2022/11/21 07:20:12;;;;;;;2.05;0.40;;;;;;;;;;5020501;28;20029;-80
2022/11/21 07:22:38;;;;;;;0.40;0.32;;;;;;;;;;5013526;28;20045;-81
2022/11/21 07:25:04;;;;;;;0.38;0.38;;;;;;;;;;5021770;28;20096;-81
2022/11/21 07:27:30;;;;;;;0.75;0.45;;;;;;;;;;5015171;28;20642;-80
2022/11/21 07:29:57;;;;;;;0.93;0.20;;;;;;;;;;5005861;28;20061;-80
2022/11/21 07:32:27;;;;;;;1.13;0.55;;;;;;;;;;5009533;28;20030;-79
2022/11/21 07:34:53;;;;;;;3.10;0.20;;;;;;;;;;5022516;28;20032;-79
2022/11/21 07:37:19;;;;;;;2.13;0.40;;;;;;;;;;5023590;28;20030;-79
2022/11/21 07:39:45;;;;;;;3.28;0.20;;;;;;;;;;5021674;28;20022;-79
2022/11/21 07:42:11;;;;;;;1.20;0.30;;;;;;;;;;5020302;28;20038;-79
2022/11/21 07:44:38;;;;;;;3.83;0.50;;;;;;;;;;5010602;28;20031;-79
2022/11/21 07:47:04;;;;;;;0.77;0.20;;;;;;;;;;5015447;28;20025;-81
2022/11/21 07:49:30;;;;;;;1.88;0.70;;;;;;;;;;5019538;28;20125;-79
2022/11/21 07:51:56;;;;;;;0.80;0.35;;;;;;;;;;5019344;28;20068;-79
2022/11/21 07:54:22;;;;;;;0.40;0.30;;;;;;;;;;5019193;28;20026;-79
2022/11/21 07:56:48;;;;;;;0.90;0.20;;;;;;;;;;5018741;28;20057;-79
2022/11/21 07:59:14;;;;;;;0.73;0.40;;;;;;;;;;5010375;28;20018;-79
2022/11/21 08:01:40;;;;;;;0.82;0.35;;;;;;;;;;5014575;28;20038;-78
2022/11/21 08:04:06;;;;;;;1.70;0.50;;;;;;;;;;4997495;28;20053;-79
2022/11/21 08:06:35;;;;;;;0.32;0.32;;;;;;;;;;4998053;28;20065;-78
2022/11/21 08:09:01;;;;;;;1.38;0.30;;;;;;;;;;5001145;28;20022;-79
2022/11/21 08:11:27;;;;;;;0.63;0.55;;;;;;;;;;4999645;28;20026;-79
2022/11/21 08:13:53;;;;;;;2.50;0.60;;;;;;;;;;4998592;28;20026;-79
2022/11/21 08:16:21;;;;;;;0.40;0.22;;;;;;;;;;5013909;28;20125;-80
2022/11/21 08:18:49;;;;;;;1.73;0.50;;;;;;;;;;5015282;28;20360;-79
2022/11/21 08:21:16;;;;;;;3.67;0.30;;;;;;;;;;5016783;28;20040;-79
2022/11/21 08:23:42;;;;;;;1.40;0.43;;;;;;;;;;5022776;28;20068;-79
2022/11/21 08:26:09;;;;;;;0.40;0.20;;;;;;;;;;5021377;28;20030;-80
2022/11/21 08:28:35;;;;;;;2.20;0.50;;;;;;;;;;5023544;28;20072;-79
2022/11/21 08:31:05;;;;;;;1.27;0.65;;;;;;;;;;5022007;28;20033;-79
2022/11/21 08:33:32;;;;;;;1.02;0.52;;;;;;;;;;5023896;28;20053;-80
2022/11/21 08:35:58;;;;;;;2.13;0.40;;;;;;;;;;5022763;28;20046;-80
2022/11/21 08:38:24;;;;;;;2.80;0.60;;;;;;;;;;5004229;28;20019;-79
2022/11/21 08:42:01;;;;;;;2.47;0.57;;;;;;;;;;5003703;28;20202;-79
2022/11/21 08:43:36;;;;;;;1.00;0.45;;;;;;;;;;5004365;28;20046;-79
2022/11/21 08:46:02;;;;;;;0.73;0.50;;;;;;;;;;5003367;28;20026;-81
2022/11/21 08:48:28;;;;;;;2.22;0.50;;;;;;;;;;5003159;28;20125;-80
2022/11/21 08:50:56;;;;;;;1.45;0.63;;;;;;;;;;5019801;28;20037;-80
2022/11/21 08:53:22;;;;;;;0.75;0.40;;;;;;;;;;5022158;28;20109;-81
2022/11/21 08:55:49;;;;;;;1.27;0.35;;;;;;;;;;5021726;28;20034;-82
2022/11/21 08:58:15;;;;;;;1.45;0.57;;;;;;;;;;5023092;28;20418;-80
2022/11/21 09:00:41;;;;;;;1.50;0.80;;;;;;;;;;5016940;28;20037;-82
2022/11/21 09:03:07;;;;;;;3.72;1.05;;;;;;;;;;5021618;28;20033;-80
2022/11/21 09:05:33;;;;;;;1.92;0.50;;;;;;;;;;5021900;28;20021;-80
2022/11/21 09:07:59;;;;;;;1.63;0.47;;;;;;;;;;5020963;28;20030;-80
2022/11/21 09:10:26;;;;;;;2.20;0.82;;;;;;;;;;5024361;28;20057;-79
2022/11/21 09:12:52;;;;;;;0.93;0.80;;;;;;;;;;5023379;28;20030;-80
2022/11/21 09:18:04;;;;;;;2.28;0.82;;;;;;;;;;5022471;28;20388;-80
2022/11/21 09:20:30;;;;;;;2.55;0.70;;;;;;;;;;5025547;28;20034;-80
2022/11/21 09:22:57;;;;;;;3.20;0.60;;;;;;;;;;5025426;28;20042;-80
2022/11/21 09:25:23;;;;;;;1.42;0.68;;;;;;;;;;5024518;28;20032;-78
2022/11/21 09:27:49;;;;;;;5.40;2.13;;;;;;;;;;5023473;28;20049;-79
2022/11/21 09:30:15;;;;;;;2.60;0.70;;;;;;;;;;5016879;28;20026;-78
2022/11/21 09:32:41;;;;;;;3.30;0.80;;;;;;;;;;5003625;28;20528;-78
2022/11/21 09:35:07;;;;;;;1.67;0.98;;;;;;;;;;5004394;28;20031;-80
2022/11/21 09:37:37;;;;;;;2.58;0.85;;;;;;;;;;5002914;28;20094;-79
2022/11/21 09:40:03;;;;;;;3.33;0.88;;;;;;;;;;5010295;28;20026;-79
2022/11/21 09:42:48;;;;;;;3.78;0.85;;;;;;;;;;5024949;28;20160;-80
2022/11/21 09:45:26;;;;;;;1.40;0.85;;;;;;;;;;5008827;28;20018;-81
2022/11/21 09:47:52;;;;;;;4.57;0.77;;;;;;;;;;5000525;28;20038;-81
2022/11/21 09:50:24;;;;;;;2.17;0.80;;;;;;;;;;5000850;28;20064;-80
2022/11/21 09:52:50;;;;;;;3.65;0.80;;;;;;;;;;5009849;28;20056;-82
2022/11/21 09:55:28;;;;;;;2.75;0.75;;;;;;;;;;5005969;28;20060;-81
2022/11/21 09:57:54;;;;;;;3.40;0.90;;;;;;;;;;5012199;28;20018;-81
2022/11/21 10:00:22;;;;;;;4.72;0.82;;;;;;;;;;5016311;28;20132;-81
2022/11/21 10:02:48;;;;;;;4.32;0.85;;;;;;;;;;5020541;28;20033;-81
2022/11/21 10:05:15;;;;;;;3.50;0.80;;;;;;;;;;5022517;28;20030;-81
2022/11/21 10:07:42;;;;;;;3.75;1.00;;;;;;;;;;5020155;28;20032;-81
2022/11/21 10:10:26;;;;;;;5.93;0.80;;;;;;;;;;5023183;28;20014;-81
2022/11/21 10:12:52;;;;;;;2.45;0.90;;;;;;;;;;5019678;28;20040;-82
2022/11/21 10:15:41;;;;;;;3.50;0.63;;;;;;;;;;5141305;27;20420;-80
2022/11/21 10:18:07;;;;;;;2.53;0.85;;;;;;;;;;5137854;28;20046;-80
2022/11/21 10:20:39;;;;;;;1.95;0.90;;;;;;;;;;5123641;28;20032;-81
2022/11/21 10:23:29;;;;;;;2.40;0.50;;;;;;;;;;5127579;28;20023;-81
2022/11/21 10:25:56;;;;;;;1.85;0.82;;;;;;;;;;5120338;28;20102;-81
2022/11/21 10:28:28;;;;;;;2.90;0.70;;;;;;;;;;5122589;28;20023;-80
2022/11/21 10:30:54;;;;;;;2.55;0.90;;;;;;;;;;5123330;28;20024;-81
2022/11/21 10:33:40;;;;;;;1.75;0.52;;;;;;;;;;5124716;28;20088;-80
2022/11/21 10:36:06;;;;;;;1.73;0.75;;;;;;;;;;5129659;28;20020;-79
2022/11/21 10:38:40;;;;;;;5.07;0.70;;;;;;;;;;5133803;28;20012;-82
2022/11/21 10:41:26;;;;;;;0.88;0.68;;;;;;;;;;5133478;28;20024;-80
2022/11/21 10:46:53;;;;;;;3.67;0.68;;;;;;;;;;5118496;28;20085;-81
2022/11/21 10:49:19;;;;;;;1.27;0.95;;;;;;;;;;5118604;28;20032;-80
2022/11/21 10:51:50;;;;;;;5.68;0.80;;;;;;;;;;5117828;28;20036;-80
2022/11/21 10:54:31;;;;;;;3.33;0.90;;;;;;;;;;5119467;28;20032;-82
2022/11/21 10:57:14;;;;;;;2.25;0.85;;;;;;;;;;5117930;28;20016;-80
2022/11/21 10:59:40;;;;;;;2.70;0.70;;;;;;;;;;5120061;28;20047;-81
2022/11/21 11:02:13;;;;;;;2.10;0.93;;;;;;;;;;5123607;28;20016;-80
2022/11/21 11:04:44;;;;;;;5.70;1.30;;;;;;;;;;5130745;28;20067;-80
2022/11/21 11:07:20;;;;;;;3.42;1.00;;;;;;;;;;5119980;28;20023;-80
2022/11/21 11:09:46;;;;;;;4.15;0.88;;;;;;;;;;5118247;28;20345;-79
2022/11/21 11:13:32;;;;;;;2.50;0.90;;;;;;;;;;5122221;28;20032;-79
2022/11/21 11:15:20;;;;;;;5.05;1.23;;;;;;;;;;5119274;28;20048;-80
2022/11/21 11:17:46;;;;;;;;;;;;;;;;;;5118537;28;20027;-79
2022/11/21 11:20:47;;;;;;;3.00;1.08;;;;;;;;;;5116950;28;19958;-79
2022/11/21 11:23:21;;;;;;;3.05;1.35;;;;;;;;;;5074007;28;20144;-80
2022/11/21 11:25:48;;;;;;;3.72;1.08;;;;;;;;;;5115516;28;20040;-81
2022/11/21 11:28:14;;;;;;;2.78;1.08;;;;;;;;;;5102778;28;20034;-81
2022/11/21 11:30:40;;;;;;;4.78;1.33;;;;;;;;;;5103273;28;20024;-81
2022/11/21 11:33:25;;;;;;;4.95;1.85;;;;;;;;;;5103111;28;20028;-81
2022/11/21 11:35:51;;;;;;;1.52;0.80;;;;;;;;;;5104931;28;20124;-81
2022/11/21 11:38:18;;;;;;;1.73;0.82;;;;;;;;;;5103068;28;20028;-81
2022/11/21 11:40:44;;;;;;;3.67;1.00;;;;;;;;;;5104009;28;20027;-81
2022/11/21 11:49:08;;;;;;;2.85;1.27;;;;;;;;;;5101858;28;20035;-79
2022/11/21 11:51:39;;;;;;;5.32;1.42;;;;;;;;;;5103690;28;20050;-80
2022/11/21 11:54:12;;;;;;;3.33;1.10;;;;;;;;;;5105214;28;20027;-81
2022/11/21 11:56:39;;;;;;;1.90;1.00;;;;;;;;;;5102186;28;20480;-82
2022/11/21 11:59:11;;;;;;;3.58;1.13;;;;;;;;;;5102895;28;20243;-81
2022/11/21 12:02:00;;;;;;;4.75;1.25;;;;;;;;;;5104363;28;20016;-81
2022/11/21 12:04:28;;;;;;;8.50;3.17;;;;;;;;;;5086766;28;20434;-81
2022/11/21 12:09:35;;;;;;;2.88;1.40;;;;;;;;;;5185168;22;20426;-81
2022/11/21 12:12:09;;;;;;;3.33;1.42;;;;;;;;;;5085544;28;20048;-82
2022/11/21 12:17:35;;;;;;;44.28;14.32;;;;;;;;;;5100545;28;20094;-82
2022/11/21 12:20:03;;;;;;;29.27;10.30;;;;;;;;;;5103646;28;20511;-81
2022/11/21 12:22:29;;;;;;;28.88;8.90;;;;;;;;;;5086378;28;20024;-82
2022/11/21 12:24:55;;;;;;;64.55;23.08;;;;;;;;;;5085856;28;20032;-81
2022/11/21 12:27:21;;;;;;;117.35;37.30;;;;;;;;;;5103452;28;20054;-80
2022/11/21 12:30:06;;;;;;;173.02;48.00;;;;;;;;;;5084979;28;20058;-81
2022/11/21 12:32:45;;;;;;;37.78;17.30;;;;;;;;;;5100788;28;20122;-82
2022/11/21 12:35:17;;;;;;;19.38;9.45;;;;;;;;;;5074772;28;20067;-82
2022/11/21 12:38:03;;;;;;;58.75;45.78;;;;;;;;;;5085962;28;20021;-82
2022/11/21 12:40:35;;;;;;;15.20;8.57;;;;;;;;;;5082819;28;20563;-82
2022/11/21 12:43:04;;;;;;;9.05;5.60;;;;;;;;;;5081390;28;20115;-82
2022/11/21 12:45:30;;;;;;;7.30;4.00;;;;;;;;;;5082122;28;20028;-82
2022/11/21 12:57:00;;;;;;;2.42;0.98;;;;;;;;;;5103704;28;20046;-81
2022/11/21 12:59:26;;;;;;;3.08;0.90;;;;;;;;;;5109677;28;20028;-81
2022/11/21 13:01:58;;;;;;;1.10;0.60;;;;;;;;;;5096377;28;20013;-81
2022/11/21 13:04:28;;;;;;;2.22;0.95;;;;;;;;;;5082575;28;20052;-81
2022/11/21 13:06:55;;;;;;;3.28;2.00;;;;;;;;;;5082085;28;20027;-81
2022/11/21 13:09:22;;;;;;;3.00;1.60;;;;;;;;;;5096313;28;20032;-82
2022/11/21 13:11:57;;;;;;;6.22;1.00;;;;;;;;;;5106742;28;20051;-82
2022/11/21 13:14:26;;;;;;;0.65;0.60;;;;;;;;;;5102123;28;20081;-83
2022/11/21 13:16:57;;;;;;;2.38;1.42;;;;;;;;;;5102862;28;20131;-83
2022/11/21 13:19:24;;;;;;;2.25;1.25;;;;;;;;;;5102801;28;20039;-82
2022/11/21 13:21:53;;;;;;;4.43;2.28;;;;;;;;;;5082700;28;20024;-81
2022/11/21 13:24:37;;;;;;;2.35;1.40;;;;;;;;;;5100621;28;20036;-82
2022/11/21 13:27:03;;;;;;;2.42;0.70;;;;;;;;;;5084294;28;20028;-82
2022/11/21 13:29:29;;;;;;;4.32;1.25;;;;;;;;;;5083644;28;20016;-82
2022/11/21 13:31:56;;;;;;;5.45;3.65;;;;;;;;;;5100465;28;20028;-82
2022/11/21 13:34:31;;;;;;;3.85;2.78;;;;;;;;;;5081228;28;20029;-82
2022/11/21 13:36:57;;;;;;;3.55;1.40;;;;;;;;;;5088104;28;20036;-82
2022/11/21 13:39:33;;;;;;;2.60;1.05;;;;;;;;;;5087862;28;20320;-82
2022/11/21 13:44:44;;;;;;;0.73;0.68;;;;;;;;;;5100538;28;20043;-83
2022/11/21 13:47:11;;;;;;;2.03;0.98;;;;;;;;;;5081604;28;20054;-83
2022/11/21 13:49:37;;;;;;;5.90;0.88;;;;;;;;;;5084627;28;20016;-83
2022/11/21 13:52:32;;;;;;;5.85;1.30;;;;;;;;;;5101441;28;20046;-84
2022/11/21 13:55:01;;;;;;;6.75;0.90;;;;;;;;;;5062495;28;20040;-83
2022/11/21 13:57:33;;;;;;;2.58;0.68;;;;;;;;;;5101509;28;20032;-83
2022/11/21 13:59:59;;;;;;;2.13;0.88;;;;;;;;;;5086838;28;20138;-83
2022/11/21 14:02:46;;;;;;;1.17;0.60;;;;;;;;;;5079574;28;20047;-83
2022/11/21 14:05:18;;;;;;;0.73;0.63;;;;;;;;;;5084602;28;20115;-83
2022/11/21 14:07:44;;;;;;;;;;;;;;;;;;5088756;28;20032;-83
2022/11/21 14:10:36;;;;;;;1.20;0.60;;;;;;;;;;5082438;28;19912;-83
2022/11/21 14:13:03;;;;;;;3.85;0.80;;;;;;;;;;5078300;28;20052;-83
2022/11/21 14:15:43;;;;;;;2.38;0.80;;;;;;;;;;5084510;28;20036;-82
2022/11/21 14:18:19;;;;;;;3.38;0.80;;;;;;;;;;5081029;28;20106;-82
2022/11/21 14:20:45;;;;;;;3.63;0.70;;;;;;;;;;5084192;28;20034;-82
2022/11/21 14:23:22;;;;;;;2.10;0.60;;;;;;;;;;5084684;28;20059;-82
2022/11/21 14:25:49;;;;;;;1.38;0.52;;;;;;;;;;5083555;28;20016;-81
2022/11/21 14:28:27;;;;;;;2.53;0.93;;;;;;;;;;5100093;28;20024;-83
2022/11/21 14:31:00;;;;;;;3.38;0.75;;;;;;;;;;5084253;28;20542;-80
2022/11/21 14:33:26;;;;;;;2.35;0.93;;;;;;;;;;5093501;28;20041;-81
2022/11/21 14:35:58;;;;;;;3.30;0.50;;;;;;;;;;5099131;28;20031;-81
2022/11/21 14:38:24;;;;;;;0.52;0.50;;;;;;;;;;5080812;28;20175;-81
2022/11/21 14:41:10;;;;;;;2.38;0.80;;;;;;;;;;5082768;28;20036;-81
2022/11/21 14:43:36;;;;;;;2.00;0.63;;;;;;;;;;5100486;28;20024;-81
2022/11/21 14:46:02;;;;;;;5.65;1.73;;;;;;;;;;5082866;28;20039;-82
2022/11/21 14:48:29;;;;;;;4.00;0.90;;;;;;;;;;5102751;28;20036;-82
2022/11/21 14:50:57;;;;;;;4.40;0.98;;;;;;;;;;5082998;28;20040;-82
2022/11/21 14:53:25;;;;;;;2.10;0.60;;;;;;;;;;5082288;28;20021;-82
2022/11/21 14:55:51;;;;;;;2.63;0.63;;;;;;;;;;5082178;28;20024;-82
2022/11/21 14:58:21;;;;;;;4.18;1.02;;;;;;;;;;5101248;28;20089;-82
2022/11/21 15:01:04;;;;;;;3.97;0.93;;;;;;;;;;5101799;28;20024;-82
2022/11/21 15:03:30;;;;;;;3.40;0.80;;;;;;;;;;5088834;28;20072;-82
2022/11/21 15:06:00;;;;;;;2.97;1.02;;;;;;;;;;5082770;28;20025;-82
2022/11/21 15:08:26;;;;;;;3.47;1.00;;;;;;;;;;5085914;28;20033;-83
2022/11/21 15:10:53;;;;;;;1.45;0.80;;;;;;;;;;5086211;28;20021;-82
2022/11/21 15:13:23;;;;;;;1.40;0.50;;;;;;;;;;5101700;28;20061;-82
2022/11/21 15:15:50;;;;;;;2.05;0.73;;;;;;;;;;5101066;28;20028;-83
2022/11/21 15:18:19;;;;;;;1.75;0.65;;;;;;;;;;5102841;28;20020;-82
2022/11/21 15:20:49;;;;;;;4.47;1.08;;;;;;;;;;5103405;28;20100;-83
2022/11/21 15:23:27;;;;;;;1.17;0.70;;;;;;;;;;5104719;28;20020;-81
2022/11/21 15:25:54;;;;;;;2.65;1.05;;;;;;;;;;5104149;28;20024;-82
2022/11/21 15:28:20;;;;;;;2.22;0.65;;;;;;;;;;5103428;28;20032;-82